createdAt,value
2023-12-03T00:01:45.452Z,29.77
2023-12-03T00:04:12.569Z,33.83
2023-12-03T00:06:41.964Z,34.27
2023-12-03T00:09:09.898Z,31.00
2023-12-03T00:11:36.760Z,29.27
2023-12-03T00:14:03.667Z,30.73
2023-12-03T00:16:30.403Z,30.30
2023-12-03T00:18:57.740Z,32.17
2023-12-03T00:21:24.607Z,30.73
2023-12-03T00:23:51.546Z,29.60
2023-12-03T00:26:18.381Z,31.83
2023-12-03T00:28:47.049Z,29.20
2023-12-03T00:31:13.879Z,31.80
2023-12-03T00:33:40.767Z,33.23
2023-12-03T00:36:07.960Z,33.20
2023-12-03T00:38:34.812Z,36.40
2023-12-03T00:41:01.538Z,31.47
2023-12-03T00:43:28.339Z,31.87
2023-12-03T00:45:55.391Z,32.33
2023-12-03T00:48:22.285Z,32.67
2023-12-03T00:50:50.030Z,33.60
2023-12-03T00:53:16.825Z,34.63
2023-12-03T00:55:43.570Z,34.77
2023-12-03T00:58:10.370Z,34.50
2023-12-03T01:00:37.126Z,33.97
2023-12-03T01:03:03.954Z,35.77
2023-12-03T01:05:30.754Z,35.20
2023-12-03T01:07:57.691Z,33.90
2023-12-03T01:10:24.532Z,33.33
2023-12-03T01:12:51.677Z,32.03
2023-12-03T01:15:18.508Z,33.23
2023-12-03T01:17:45.278Z,30.57
2023-12-03T01:20:12.362Z,33.70
2023-12-03T01:22:39.152Z,32.33
2023-12-03T01:25:06.315Z,29.47
2023-12-03T01:27:33.203Z,30.70
2023-12-03T01:30:00.203Z,30.20
2023-12-03T01:32:27.082Z,29.93
2023-12-03T01:34:53.901Z,30.53
2023-12-03T01:37:20.731Z,30.67
2023-12-03T01:39:47.731Z,34.13
2023-12-03T01:42:14.621Z,38.50
2023-12-03T01:44:41.425Z,34.27
2023-12-03T01:47:08.816Z,34.80
2023-12-03T01:49:36.380Z,35.40
2023-12-03T01:52:04.013Z,32.93
2023-12-03T01:54:36.473Z,35.80
2023-12-03T01:57:03.867Z,34.13
2023-12-03T01:59:32.603Z,37.27
2023-12-03T02:01:59.536Z,32.43
2023-12-03T02:04:26.409Z,32.00
2023-12-03T02:06:53.269Z,35.87
2023-12-03T02:09:21.343Z,30.80
2023-12-03T02:11:48.654Z,30.10
2023-12-03T02:14:15.673Z,32.93
2023-12-03T02:16:46.627Z,28.70
2023-12-03T02:19:13.503Z,30.87
2023-12-03T02:21:41.266Z,31.17
2023-12-03T02:24:08.165Z,28.37
2023-12-03T02:26:35.229Z,30.43
2023-12-03T02:29:02.052Z,28.27
2023-12-03T02:31:31.613Z,30.83
2023-12-03T02:34:07.892Z,26.10
2023-12-03T02:36:35.375Z,30.60
2023-12-03T02:39:02.865Z,31.60
2023-12-03T02:41:29.937Z,30.03
2023-12-03T02:43:56.887Z,27.83
2023-12-03T02:46:23.943Z,33.27
2023-12-03T02:48:51.209Z,30.03
2023-12-03T02:51:18.397Z,32.80
2023-12-03T02:53:46.416Z,30.53
2023-12-03T02:56:16.593Z,34.10
2023-12-03T02:58:43.389Z,32.20
2023-12-03T03:01:10.561Z,32.03
2023-12-03T03:03:37.476Z,30.93
2023-12-03T03:06:04.422Z,34.37
2023-12-03T03:08:31.236Z,30.77
2023-12-03T03:10:57.931Z,31.27
2023-12-03T03:13:24.702Z,33.97
2023-12-03T03:15:51.470Z,29.20
2023-12-03T03:18:18.318Z,34.83
2023-12-03T03:20:45.188Z,32.27
2023-12-03T03:23:11.915Z,32.27
2023-12-03T03:25:38.669Z,29.73
2023-12-03T03:28:05.467Z,33.33
2023-12-03T03:30:32.330Z,31.30
2023-12-03T03:32:59.199Z,32.33
2023-12-03T03:35:26.021Z,30.60
2023-12-03T03:37:52.750Z,31.00
2023-12-03T03:40:19.509Z,34.37
2023-12-03T03:42:46.283Z,33.33
2023-12-03T03:45:13.166Z,33.30
2023-12-03T03:47:40.089Z,31.20
2023-12-03T03:50:07.314Z,33.50
2023-12-03T03:52:34.062Z,32.63
2023-12-03T03:55:00.859Z,32.40
2023-12-03T03:57:27.712Z,28.43
2023-12-03T03:59:54.489Z,29.30
2023-12-03T04:02:21.366Z,29.77
2023-12-03T04:04:48.467Z,31.03
2023-12-03T04:07:15.491Z,30.83
2023-12-03T04:09:42.410Z,30.83
2023-12-03T04:12:09.208Z,30.23
2023-12-03T04:14:36.509Z,32.30
2023-12-03T04:17:04.646Z,29.30
2023-12-03T04:19:31.559Z,31.07
2023-12-03T04:21:58.335Z,32.07
2023-12-03T04:24:25.158Z,31.03
2023-12-03T04:26:52.056Z,31.20
2023-12-03T04:29:18.952Z,31.43
2023-12-03T04:31:45.716Z,32.10
2023-12-03T04:34:13.589Z,32.10
2023-12-03T04:36:43.137Z,32.23
2023-12-03T04:39:10.394Z,30.30
2023-12-03T04:41:39.005Z,29.77
2023-12-03T04:44:05.951Z,30.90
2023-12-03T04:46:32.831Z,29.53
2023-12-03T04:48:59.765Z,32.70
2023-12-03T04:51:26.861Z,29.50
2023-12-03T04:53:53.823Z,31.50
2023-12-03T04:56:20.563Z,34.63
2023-12-03T04:58:47.331Z,32.03
2023-12-03T05:01:17.188Z,32.43
2023-12-03T05:03:48.618Z,30.00
2023-12-03T05:06:15.714Z,30.77
2023-12-03T05:08:42.590Z,31.83
2023-12-03T05:11:09.691Z,32.43
2023-12-03T05:13:36.516Z,30.63
2023-12-03T05:16:07.668Z,27.53
2023-12-03T05:18:34.737Z,30.50
2023-12-03T05:21:02.791Z,31.40
2023-12-03T05:23:29.626Z,28.30
2023-12-03T05:25:58.178Z,27.97
2023-12-03T05:28:24.959Z,30.23
2023-12-03T05:30:51.819Z,29.50
2023-12-03T05:33:18.793Z,28.93
2023-12-03T05:35:45.718Z,28.10
2023-12-03T05:38:12.539Z,29.67
2023-12-03T05:40:39.439Z,26.60
2023-12-03T05:43:06.235Z,28.33
2023-12-03T05:45:33.082Z,27.00
2023-12-03T05:47:59.969Z,26.70
2023-12-03T05:50:26.740Z,27.13
2023-12-03T05:52:53.476Z,27.17
2023-12-03T05:55:20.763Z,28.07
2023-12-03T05:57:47.579Z,27.80
2023-12-03T06:00:14.967Z,26.07
2023-12-03T06:02:42.037Z,29.20
2023-12-03T06:05:09.012Z,29.67
2023-12-03T06:07:35.902Z,27.93
2023-12-03T06:10:02.869Z,27.13
2023-12-03T06:12:30.213Z,25.17
2023-12-03T06:14:56.994Z,25.23
2023-12-03T06:17:23.802Z,26.50
2023-12-03T06:19:50.657Z,22.20
2023-12-03T06:22:17.487Z,23.00
2023-12-03T06:24:44.348Z,21.47
2023-12-03T06:27:11.177Z,21.60
2023-12-03T06:29:37.936Z,22.77
2023-12-03T06:32:04.827Z,21.90
2023-12-03T06:34:31.644Z,20.67
2023-12-03T06:36:59.638Z,23.27
2023-12-03T06:39:26.564Z,19.23
2023-12-03T06:41:53.514Z,24.83
2023-12-03T06:44:31.000Z,21.37
2023-12-03T06:47:06.275Z,19.90
2023-12-03T06:49:34.472Z,21.40
2023-12-03T06:52:01.367Z,22.33
2023-12-03T06:54:28.372Z,22.17
2023-12-03T06:56:55.234Z,19.97
2023-12-03T06:59:22.034Z,23.13
2023-12-03T07:01:48.848Z,22.30
2023-12-03T07:04:15.554Z,23.00
2023-12-03T07:06:42.450Z,22.57
2023-12-03T07:09:36.263Z,22.93
2023-12-03T07:11:56.097Z,23.77
2023-12-03T07:14:22.824Z,22.70
2023-12-03T07:16:49.647Z,25.23
2023-12-03T07:19:16.418Z,25.97
2023-12-03T07:21:43.373Z,24.17
2023-12-03T07:24:10.137Z,24.33
2023-12-03T07:26:36.992Z,21.70
2023-12-03T07:29:03.963Z,23.90
2023-12-03T07:31:32.248Z,25.10
2023-12-03T07:33:59.042Z,25.17
2023-12-03T07:36:26.794Z,24.87
2023-12-03T07:38:53.600Z,24.13
2023-12-03T07:41:20.380Z,27.23
2023-12-03T07:43:47.168Z,26.57
2023-12-03T07:46:18.120Z,25.87
2023-12-03T07:48:45.847Z,24.17
2023-12-03T07:51:13.345Z,24.50
2023-12-03T07:53:41.267Z,24.87
2023-12-03T07:56:09.569Z,26.60
2023-12-03T07:58:37.268Z,22.27
2023-12-03T08:01:06.562Z,29.10
2023-12-03T08:03:33.913Z,24.47
2023-12-03T08:06:00.935Z,24.70
2023-12-03T08:08:27.862Z,22.30
2023-12-03T08:10:54.765Z,26.80
2023-12-03T08:13:21.627Z,29.83
2023-12-03T08:15:48.420Z,27.53
2023-12-03T08:18:15.289Z,29.93
2023-12-03T08:20:42.116Z,30.40
2023-12-03T08:23:08.963Z,28.37
2023-12-03T08:25:35.783Z,29.97
2023-12-03T08:28:03.795Z,24.93
2023-12-03T08:30:30.628Z,23.67
2023-12-03T08:32:57.649Z,25.37
2023-12-03T08:35:24.434Z,26.10
2023-12-03T08:37:51.236Z,25.87
2023-12-03T08:40:18.111Z,28.57
2023-12-03T08:42:45.768Z,28.10
2023-12-03T08:45:12.882Z,27.57
2023-12-03T08:47:39.770Z,26.63
2023-12-03T08:50:07.392Z,27.70
2023-12-03T08:52:34.567Z,27.00
2023-12-03T08:55:02.098Z,26.90
2023-12-03T08:57:28.902Z,28.20
2023-12-03T08:59:55.769Z,27.90
2023-12-03T09:02:22.805Z,28.23
2023-12-03T09:04:52.318Z,31.00
2023-12-03T09:07:19.383Z,29.63
2023-12-03T09:09:46.802Z,28.20
2023-12-03T09:12:15.274Z,31.80
2023-12-03T09:14:42.042Z,30.67
2023-12-03T09:17:08.894Z,27.77
2023-12-03T09:19:35.774Z,30.43
2023-12-03T09:22:02.801Z,28.60
2023-12-03T09:24:29.637Z,29.37
2023-12-03T09:26:56.465Z,30.30
2023-12-03T09:29:23.258Z,29.03
2023-12-03T09:31:50.026Z,27.87
2023-12-03T09:34:16.931Z,28.33
2023-12-03T09:36:43.783Z,27.00
2023-12-03T09:39:10.918Z,26.70
2023-12-03T09:41:49.340Z,28.13
2023-12-03T09:44:32.702Z,27.97
2023-12-03T09:47:00.611Z,23.67
2023-12-03T09:49:31.224Z,27.07
2023-12-03T09:52:03.802Z,26.13
2023-12-03T09:54:32.866Z,28.67
2023-12-03T09:57:00.716Z,26.47
2023-12-03T09:59:27.970Z,27.27
2023-12-03T10:01:58.655Z,28.17
2023-12-03T10:04:28.835Z,25.53
2023-12-03T10:06:59.661Z,28.37
2023-12-03T10:09:27.762Z,25.83
2023-12-03T10:11:56.576Z,26.03
2023-12-03T10:14:23.833Z,26.00
2023-12-03T10:16:51.361Z,24.50
2023-12-03T10:19:26.537Z,24.60
2023-12-03T10:21:54.722Z,23.90
2023-12-03T10:24:21.655Z,22.53
2023-12-03T10:26:52.947Z,23.13
2023-12-03T10:29:27.202Z,23.90
2023-12-03T10:31:54.618Z,21.03
2023-12-03T10:34:22.540Z,19.70
2023-12-03T10:36:51.129Z,16.67
2023-12-03T10:39:21.423Z,16.40
2023-12-03T10:41:50.667Z,17.73
2023-12-03T10:44:25.578Z,20.70
2023-12-03T10:46:52.386Z,19.37
2023-12-03T10:49:21.693Z,20.00
2023-12-03T10:51:49.000Z,20.00
2023-12-03T10:54:16.063Z,18.60
2023-12-03T10:56:44.560Z,18.77
2023-12-03T10:59:21.947Z,20.43
2023-12-03T11:01:55.026Z,18.90
2023-12-03T11:04:35.571Z,21.97
2023-12-03T11:07:07.506Z,19.13
2023-12-03T11:09:41.757Z,17.27
2023-12-03T11:12:10.658Z,19.70
2023-12-03T11:14:38.090Z,19.70
2023-12-03T11:17:18.938Z,18.00
2023-12-03T11:19:55.374Z,17.57
2023-12-03T11:22:47.902Z,16.13
2023-12-03T11:25:32.681Z,18.90
2023-12-03T11:27:59.613Z,16.75
2023-12-03T11:30:43.269Z,18.42
2023-12-03T11:33:16.554Z,15.57
2023-12-03T11:35:47.664Z,16.10
2023-12-03T11:38:23.433Z,16.75
2023-12-03T11:40:51.001Z,15.55
2023-12-03T11:43:27.578Z,19.05
2023-12-03T11:45:54.744Z,18.13
2023-12-03T11:48:23.952Z,19.23
2023-12-03T11:50:51.222Z,17.40
2023-12-03T11:53:18.501Z,17.75
2023-12-03T11:55:50.339Z,20.70
2023-12-03T11:58:18.190Z,16.92
2023-12-03T12:00:48.134Z,16.15
2023-12-03T12:03:15.276Z,19.75
2023-12-03T12:05:50.405Z,17.95
2023-12-03T12:08:21.164Z,20.10
2023-12-03T12:10:51.287Z,18.80
2023-12-03T12:13:20.365Z,18.33
2023-12-03T12:15:47.794Z,18.58
2023-12-03T12:18:14.725Z,20.07
2023-12-03T12:20:41.670Z,19.43
2023-12-03T12:23:08.481Z,19.43
2023-12-03T12:25:35.376Z,19.03
2023-12-03T12:28:02.459Z,18.80
2023-12-03T12:30:34.812Z,19.30
2023-12-03T12:33:04.034Z,18.90
2023-12-03T12:35:31.305Z,21.00
2023-12-03T12:38:01.416Z,20.90
2023-12-03T12:40:31.181Z,22.40
2023-12-03T12:43:13.893Z,22.10
2023-12-03T12:45:41.603Z,21.47
2023-12-03T12:48:25.470Z,25.00
2023-12-03T12:50:52.645Z,21.10
2023-12-03T12:53:20.109Z,21.03
2023-12-03T12:55:46.953Z,20.67
2023-12-03T12:58:13.814Z,23.60
2023-12-03T13:00:40.599Z,22.07
2023-12-03T13:03:07.451Z,18.63
2023-12-03T13:05:34.417Z,20.93
2023-12-03T13:08:01.752Z,19.77
2023-12-03T13:10:28.580Z,22.63
2023-12-03T13:12:55.549Z,21.03
2023-12-03T13:15:22.742Z,20.90
2023-12-03T13:17:55.595Z,21.87
2023-12-03T13:20:23.663Z,21.00
2023-12-03T13:22:51.160Z,21.50
2023-12-03T13:25:18.940Z,22.37
2023-12-03T13:27:46.033Z,19.40
2023-12-03T13:30:13.029Z,20.30
2023-12-03T13:32:41.822Z,21.63
2023-12-03T13:35:10.169Z,22.33
2023-12-03T13:37:37.593Z,21.23
2023-12-03T13:40:07.755Z,23.80
2023-12-03T13:42:35.684Z,22.97
2023-12-03T13:45:04.108Z,21.87
2023-12-03T13:47:33.417Z,20.97
2023-12-03T13:50:02.142Z,23.00
2023-12-03T13:52:29.340Z,24.50
2023-12-03T13:54:57.804Z,21.77
2023-12-03T13:57:24.765Z,19.53
2023-12-03T13:59:52.045Z,19.50
2023-12-03T14:02:27.995Z,21.63
2023-12-03T14:05:12.511Z,20.30
2023-12-03T14:07:47.775Z,20.20
2023-12-03T14:10:15.134Z,19.07
2023-12-03T14:12:42.306Z,18.10
2023-12-03T14:15:09.688Z,21.30
2023-12-03T14:17:36.587Z,18.63
2023-12-03T14:20:06.322Z,20.57
2023-12-03T14:22:33.624Z,20.57
2023-12-03T14:25:00.739Z,19.23
2023-12-03T14:27:27.736Z,19.83
2023-12-03T14:29:54.632Z,19.50
2023-12-03T14:32:21.640Z,17.37
2023-12-03T14:34:48.469Z,20.70
2023-12-03T14:37:15.321Z,20.27
2023-12-03T14:39:42.175Z,23.30
2023-12-03T14:42:09.096Z,21.33
2023-12-03T14:44:36.055Z,18.97
2023-12-03T14:47:03.459Z,19.97
2023-12-03T14:49:30.374Z,18.23
2023-12-03T14:51:57.267Z,21.00
2023-12-03T14:54:24.202Z,19.90
2023-12-03T14:56:51.464Z,20.50
2023-12-03T14:59:18.260Z,20.00
2023-12-03T15:01:46.419Z,19.03
2023-12-03T15:04:13.330Z,18.87
2023-12-03T15:06:40.165Z,19.13
2023-12-03T15:09:07.068Z,18.80
2023-12-03T15:11:33.868Z,18.57
2023-12-03T15:14:01.103Z,21.07
2023-12-03T15:16:29.853Z,17.37
2023-12-03T15:18:57.182Z,19.03
2023-12-03T15:21:24.237Z,18.07
2023-12-03T15:23:51.316Z,19.17
2023-12-03T15:26:18.237Z,20.27
2023-12-03T15:28:45.125Z,18.47
2023-12-03T15:31:12.464Z,20.03
2023-12-03T15:33:41.348Z,20.17
2023-12-03T15:36:09.036Z,20.10
2023-12-03T15:38:35.835Z,18.40
2023-12-03T15:41:02.620Z,18.43
2023-12-03T15:43:34.406Z,19.97
2023-12-03T15:46:08.754Z,18.10
2023-12-03T15:48:36.037Z,18.63
2023-12-03T15:51:03.330Z,22.50
2023-12-03T15:53:30.422Z,21.07
2023-12-03T15:55:57.677Z,19.33
2023-12-03T15:58:25.603Z,20.50
2023-12-03T16:00:53.030Z,24.43
2023-12-03T16:03:21.248Z,22.47
2023-12-03T16:05:48.499Z,19.00
2023-12-03T16:08:15.346Z,21.50
2023-12-03T16:10:42.204Z,22.00
2023-12-03T16:13:09.094Z,19.67
2023-12-03T16:15:36.017Z,18.53
2023-12-03T16:18:03.069Z,19.07
2023-12-03T16:20:30.081Z,17.20
2023-12-03T16:22:56.979Z,21.00
2023-12-03T16:25:24.792Z,18.07
2023-12-03T16:27:51.608Z,20.13
2023-12-03T16:30:18.544Z,18.70
2023-12-03T16:32:45.492Z,18.63
2023-12-03T16:35:12.879Z,17.93
2023-12-03T16:37:40.520Z,21.80
2023-12-03T16:40:08.914Z,20.53
2023-12-03T16:42:36.649Z,19.17
2023-12-03T16:45:04.080Z,19.20
2023-12-03T16:47:31.199Z,18.80
2023-12-03T16:49:59.758Z,18.87
2023-12-03T16:52:26.696Z,22.20
2023-12-03T16:54:55.135Z,18.83
2023-12-03T16:57:22.595Z,21.23
2023-12-03T16:59:50.025Z,18.67
2023-12-03T17:02:17.156Z,20.37
2023-12-03T17:04:44.787Z,18.70
2023-12-03T17:07:12.272Z,18.33
2023-12-03T17:09:39.392Z,18.97
2023-12-03T17:12:06.435Z,18.67
2023-12-03T17:14:33.374Z,19.43
2023-12-03T17:17:00.177Z,21.00
2023-12-03T17:19:27.119Z,19.30
2023-12-03T17:21:53.973Z,20.97
2023-12-03T17:24:20.849Z,19.63
2023-12-03T17:26:47.752Z,18.17
2023-12-03T17:29:14.622Z,18.77
2023-12-03T17:31:42.518Z,18.17
2023-12-03T17:34:09.610Z,22.13
2023-12-03T17:36:36.649Z,22.23
2023-12-03T17:39:07.894Z,21.33
2023-12-03T17:41:35.897Z,21.33
2023-12-03T17:44:03.012Z,21.33
2023-12-03T17:46:29.999Z,22.60
2023-12-03T17:48:57.063Z,20.97
2023-12-03T17:51:28.532Z,26.40
2023-12-03T17:53:55.471Z,25.03
2023-12-03T17:56:22.252Z,23.03
2023-12-03T17:58:49.055Z,21.80
2023-12-03T18:01:18.599Z,21.30
2023-12-03T18:03:46.870Z,22.07
2023-12-03T18:06:14.099Z,21.60
2023-12-03T18:08:40.994Z,20.30
2023-12-03T18:11:07.892Z,20.00
2023-12-03T18:13:34.679Z,20.23
2023-12-03T18:16:01.748Z,19.53
2023-12-03T18:18:28.864Z,20.90
2023-12-03T18:20:56.044Z,20.57
2023-12-03T18:23:24.311Z,19.80
2023-12-03T18:25:54.298Z,19.73
2023-12-03T18:28:21.136Z,18.10
2023-12-03T18:30:48.858Z,21.00
2023-12-03T18:33:18.739Z,19.87
2023-12-03T18:35:46.726Z,20.83
2023-12-03T18:38:13.641Z,22.10
2023-12-03T18:40:44.196Z,18.83
2023-12-03T18:43:11.287Z,21.57
2023-12-03T18:45:38.305Z,20.10
2023-12-03T18:48:05.570Z,20.07
2023-12-03T18:50:32.461Z,20.47
2023-12-03T18:53:00.148Z,18.57
2023-12-03T18:55:26.990Z,19.00
2023-12-03T18:57:54.038Z,20.27
2023-12-03T19:00:22.011Z,18.20
2023-12-03T19:02:49.766Z,18.77
2023-12-03T19:05:17.385Z,18.30
2023-12-03T19:07:50.273Z,19.20
2023-12-03T19:10:19.669Z,20.50
2023-12-03T19:12:51.054Z,21.47
2023-12-03T19:15:22.560Z,19.57
2023-12-03T19:17:49.415Z,21.43
2023-12-03T19:20:16.297Z,19.20
2023-12-03T19:22:43.171Z,17.10
2023-12-03T19:25:09.920Z,21.10
2023-12-03T19:27:36.861Z,19.03
2023-12-03T19:30:03.911Z,18.47
2023-12-03T19:32:31.129Z,18.63
2023-12-03T19:34:58.167Z,22.10
2023-12-03T19:37:25.117Z,26.90
2023-12-03T19:39:52.330Z,41.63
2023-12-03T19:42:19.268Z,27.27
2023-12-03T19:44:46.068Z,24.67
2023-12-03T19:47:13.027Z,20.27
2023-12-03T19:49:39.801Z,20.10
2023-12-03T19:52:07.003Z,21.47
2023-12-03T19:54:33.839Z,23.37
2023-12-03T19:57:01.906Z,19.70
2023-12-03T19:59:29.375Z,19.57
2023-12-03T20:01:57.500Z,17.53
2023-12-03T20:04:24.521Z,23.30
2023-12-03T20:06:51.860Z,19.07
2023-12-03T20:09:18.845Z,19.70
2023-12-03T20:11:45.632Z,19.10
2023-12-03T20:14:12.473Z,22.53
2023-12-03T20:16:39.330Z,21.07
2023-12-03T20:19:07.464Z,20.43
2023-12-03T20:21:34.439Z,18.90
2023-12-03T20:24:01.264Z,20.30
2023-12-03T20:26:28.034Z,19.37
2023-12-03T20:28:54.829Z,18.17
2023-12-03T20:31:22.609Z,19.03
2023-12-03T20:33:49.650Z,20.00
2023-12-03T20:36:16.572Z,19.07
2023-12-03T20:38:43.410Z,20.60
2023-12-03T20:41:23.287Z,19.10
2023-12-03T20:43:50.845Z,19.43
2023-12-03T20:46:18.636Z,19.97
2023-12-03T20:48:46.124Z,19.00
2023-12-03T20:51:14.170Z,19.57
2023-12-03T20:53:41.732Z,21.00
2023-12-03T20:56:10.242Z,19.23
2023-12-03T20:58:37.062Z,17.43
2023-12-03T21:01:04.244Z,18.00
2023-12-03T21:03:31.328Z,17.17
2023-12-03T21:05:58.969Z,20.13
2023-12-03T21:08:25.824Z,18.53
2023-12-03T21:10:52.581Z,19.67
2023-12-03T21:13:19.783Z,17.67
2023-12-03T21:15:46.746Z,20.07
2023-12-03T21:18:13.676Z,23.07
2023-12-03T21:20:40.520Z,20.90
2023-12-03T21:23:07.415Z,23.70
2023-12-03T21:25:35.036Z,21.63
2023-12-03T21:28:02.088Z,20.07
2023-12-03T21:30:29.371Z,20.63
2023-12-03T21:32:57.964Z,19.20
2023-12-03T21:35:25.020Z,18.83
2023-12-03T21:37:51.931Z,18.27
2023-12-03T21:40:18.695Z,19.17
2023-12-03T21:42:45.681Z,16.70
2023-12-03T21:45:12.611Z,19.77
2023-12-03T21:47:39.587Z,17.37
2023-12-03T21:50:07.305Z,19.40
2023-12-03T21:52:34.161Z,16.50
2023-12-03T21:55:01.302Z,18.03
2023-12-03T21:57:28.245Z,19.10
2023-12-03T21:59:55.144Z,15.93
2023-12-03T22:02:22.121Z,17.17
2023-12-03T22:04:49.552Z,16.70
2023-12-03T22:07:16.498Z,18.13
2023-12-03T22:09:43.361Z,16.23
2023-12-03T22:12:10.146Z,18.17
2023-12-03T22:14:37.016Z,17.00
2023-12-03T22:17:05.592Z,17.77
2023-12-03T22:19:32.734Z,17.40
2023-12-03T22:21:59.899Z,19.13
2023-12-03T22:24:27.264Z,17.63
2023-12-03T22:26:54.300Z,17.60
2023-12-03T22:29:29.769Z,18.27
2023-12-03T22:32:04.386Z,17.23
2023-12-03T22:34:31.350Z,17.20
2023-12-03T22:36:58.224Z,17.30
2023-12-03T22:39:25.572Z,17.73
2023-12-03T22:41:52.423Z,16.20
2023-12-03T22:44:19.178Z,17.33
2023-12-03T22:46:46.032Z,16.47
2023-12-03T22:49:17.607Z,15.73
2023-12-03T22:51:44.578Z,18.60
2023-12-03T22:54:11.500Z,17.37
2023-12-03T22:56:38.252Z,16.57
2023-12-03T22:59:05.119Z,16.93
2023-12-03T23:01:31.899Z,17.73
2023-12-03T23:03:58.810Z,18.60
2023-12-03T23:06:25.805Z,16.67
2023-12-03T23:08:52.656Z,15.93
2023-12-03T23:11:19.589Z,17.20
2023-12-03T23:13:46.566Z,17.27
2023-12-03T23:16:13.580Z,17.83
2023-12-03T23:18:42.219Z,18.60
2023-12-03T23:21:09.158Z,17.53
2023-12-03T23:23:35.964Z,16.53
2023-12-03T23:26:02.814Z,16.77
2023-12-03T23:28:29.802Z,16.83
2023-12-03T23:30:56.885Z,19.23
2023-12-03T23:33:23.945Z,17.87
2023-12-03T23:35:50.807Z,19.03
2023-12-03T23:38:17.606Z,16.97
2023-12-03T23:40:44.389Z,17.93
2023-12-03T23:43:11.240Z,18.40
2023-12-03T23:45:38.022Z,20.63
2023-12-03T23:48:05.015Z,20.93
2023-12-03T23:50:31.840Z,17.67
2023-12-03T23:52:58.915Z,17.90
2023-12-03T23:55:26.176Z,17.90
2023-12-03T23:57:53.034Z,17.33
